createdAt,value
2022-09-22T00:01:36.080Z,97568.50
2022-09-22T00:06:33.121Z,97566.84
2022-09-22T00:11:29.137Z,97569.34
2022-09-22T00:16:27.962Z,97573.63
2022-09-22T00:21:27.660Z,97570.69
2022-09-22T00:26:24.501Z,97568.94
2022-09-22T00:31:21.212Z,97562.78
2022-09-22T00:36:17.720Z,97561.03
2022-09-22T00:41:18.908Z,97562.03
2022-09-22T00:46:19.339Z,97550.06
2022-09-22T00:51:19.564Z,97548.66
2022-09-22T00:56:17.110Z,97550.34
2022-09-22T01:01:10.678Z,97543.56
2022-09-22T01:06:09.417Z,97535.88
2022-09-22T01:11:06.416Z,97541.75
2022-09-22T01:16:20.254Z,97535.13
2022-09-22T01:21:42.758Z,97528.94
2022-09-22T01:27:11.322Z,97528.63
2022-09-22T01:32:16.782Z,97524.31
2022-09-22T01:37:18.604Z,97528.16
2022-09-22T01:42:19.084Z,97519.88
2022-09-22T01:47:21.694Z,97520.63
2022-09-22T01:52:21.232Z,97513.50
2022-09-22T01:57:21.990Z,97503.63
2022-09-22T02:02:25.018Z,97497.66
2022-09-22T02:07:26.836Z,97501.38
2022-09-22T02:12:20.728Z,97503.84
2022-09-22T02:17:16.835Z,97508.16
2022-09-22T02:22:12.874Z,97499.72
2022-09-22T02:27:12.253Z,97498.81
2022-09-22T02:32:13.136Z,97499.69
2022-09-22T02:37:22.038Z,97488.13
2022-09-22T02:42:27.905Z,97494.16
2022-09-22T02:47:32.392Z,97499.19
2022-09-22T02:52:27.444Z,97503.56
2022-09-22T02:57:21.194Z,97515.28
2022-09-22T03:02:15.073Z,97515.19
2022-09-22T03:07:08.251Z,97524.56
2022-09-22T03:12:03.485Z,97510.50
2022-09-22T03:16:56.729Z,97514.53
2022-09-22T03:21:49.911Z,97512.19
2022-09-22T03:26:43.122Z,97510.41
2022-09-22T03:31:37.977Z,97518.94
2022-09-22T03:36:31.252Z,97520.38
2022-09-22T03:41:25.007Z,97534.25
2022-09-22T03:46:18.318Z,97538.53
2022-09-22T03:51:13.007Z,97541.75
2022-09-22T03:56:08.417Z,97532.16
2022-09-22T04:01:01.981Z,97529.38
2022-09-22T04:05:55.215Z,97535.25
2022-09-22T04:10:50.329Z,97537.28
2022-09-22T04:15:44.088Z,97528.25
2022-09-22T04:20:43.552Z,97529.38
2022-09-22T04:25:36.834Z,97533.19
2022-09-22T04:30:31.634Z,97533.28
2022-09-22T04:35:24.969Z,97534.84
2022-09-22T04:40:18.584Z,97537.19
2022-09-22T04:45:12.407Z,97537.25
2022-09-22T04:50:08.266Z,97538.53
2022-09-22T04:55:01.448Z,97535.91
2022-09-22T04:59:54.686Z,97543.72
2022-09-22T05:04:47.907Z,97543.72
2022-09-22T05:09:42.524Z,97547.28
2022-09-22T05:14:35.755Z,97549.19
2022-09-22T05:19:29.393Z,97542.97
2022-09-22T05:24:22.671Z,97555.16
2022-09-22T05:29:18.307Z,97555.91
2022-09-22T05:34:11.658Z,97565.31
2022-09-22T05:39:05.202Z,97566.06
2022-09-22T05:43:58.526Z,97569.50
2022-09-22T05:48:53.154Z,97563.78
2022-09-22T05:53:46.391Z,97567.66
2022-09-22T05:58:39.618Z,97565.19
2022-09-22T06:03:33.045Z,97568.28
2022-09-22T06:08:27.701Z,97562.41
2022-09-22T06:13:20.945Z,97575.75
2022-09-22T06:18:15.306Z,97569.19
2022-09-22T06:23:09.097Z,97568.00
2022-09-22T06:28:06.645Z,97567.53
2022-09-22T06:33:00.397Z,97561.81
2022-09-22T06:37:58.283Z,97569.00
2022-09-22T06:42:56.952Z,97563.47
2022-09-22T06:47:51.531Z,97558.41
2022-09-22T06:52:45.408Z,97544.47
2022-09-22T06:57:38.621Z,97552.25
2022-09-22T07:02:31.873Z,97561.31
2022-09-22T07:07:28.185Z,97556.41
2022-09-22T07:12:22.283Z,97566.69
2022-09-22T07:17:16.249Z,97557.56
2022-09-22T07:22:10.107Z,97562.19
2022-09-22T07:27:07.015Z,97558.34
2022-09-22T07:32:00.321Z,97563.13
2022-09-22T07:36:53.615Z,97562.19
2022-09-22T07:41:48.140Z,97566.66
2022-09-22T07:46:42.795Z,97557.16
2022-09-22T07:51:37.323Z,97557.84
2022-09-22T07:56:31.058Z,97560.16
2022-09-22T08:01:26.842Z,97551.22
2022-09-22T08:06:24.040Z,97561.06
2022-09-22T08:11:23.128Z,97559.88
2022-09-22T08:16:19.679Z,97559.69
2022-09-22T08:21:13.269Z,97558.69
2022-09-22T08:26:10.437Z,97553.97
2022-09-22T08:31:04.838Z,97546.34
2022-09-22T08:36:03.719Z,97558.91
2022-09-22T08:41:21.937Z,97544.44
2022-09-22T08:46:17.109Z,97545.56
2022-09-22T08:51:33.882Z,97540.19
2022-09-22T08:56:37.826Z,97546.34
2022-09-22T09:01:55.124Z,97540.25
2022-09-22T09:06:59.169Z,97537.78
2022-09-22T09:12:28.911Z,97540.09
2022-09-22T09:17:30.449Z,97534.84
2022-09-22T09:22:30.072Z,97531.50
2022-09-22T09:27:31.117Z,97528.25
2022-09-22T09:32:37.705Z,97534.75
2022-09-22T09:37:32.208Z,97529.09
2022-09-22T09:42:34.908Z,97521.22
2022-09-22T09:48:01.462Z,97515.47
2022-09-22T09:52:55.938Z,97510.41
2022-09-22T09:58:10.866Z,97502.78
2022-09-22T10:03:26.104Z,97492.66
2022-09-22T10:08:23.556Z,97500.63
2022-09-22T10:13:30.611Z,97499.25
2022-09-22T10:18:37.654Z,97486.13
2022-09-22T10:23:32.913Z,97483.78
2022-09-22T10:28:27.558Z,97477.50
2022-09-22T10:33:22.882Z,97476.63
2022-09-22T10:38:21.826Z,97473.47
2022-09-22T10:43:41.030Z,97472.59
2022-09-22T10:49:13.903Z,97463.41
2022-09-22T10:54:36.531Z,97465.25
2022-09-22T11:00:09.955Z,97458.59
2022-09-22T11:05:50.670Z,97453.00
2022-09-22T11:11:17.692Z,97452.41
2022-09-22T11:16:42.257Z,97445.22
2022-09-22T11:21:55.809Z,97437.94
2022-09-22T11:26:53.470Z,97448.25
2022-09-22T11:32:01.446Z,97436.13
2022-09-22T11:37:25.557Z,97429.09
2022-09-22T11:42:29.045Z,97425.69
2022-09-22T11:48:03.766Z,97426.34
2022-09-22T11:53:34.261Z,97412.09
2022-09-22T11:58:33.326Z,97403.22
2022-09-22T12:03:37.484Z,97396.25
2022-09-22T12:08:37.971Z,97389.97
2022-09-22T12:13:34.172Z,97385.81
2022-09-22T12:18:42.435Z,97387.50
2022-09-22T12:23:44.227Z,97376.53
2022-09-22T12:28:44.003Z,97372.63
2022-09-22T12:33:46.424Z,97370.94
2022-09-22T12:38:40.109Z,97370.94
2022-09-22T12:43:36.220Z,97365.25
2022-09-22T12:48:34.287Z,97351.91
2022-09-22T12:53:29.800Z,97367.63
2022-09-22T12:58:49.928Z,97362.34
2022-09-22T13:03:52.503Z,97355.06
2022-09-22T13:09:21.413Z,97353.41
2022-09-22T13:14:58.978Z,97348.41
2022-09-22T13:19:56.286Z,97333.78
2022-09-22T13:24:50.977Z,97343.78
2022-09-22T13:29:59.252Z,97334.63
2022-09-22T13:34:52.472Z,97336.28
2022-09-22T13:39:52.541Z,97322.09
2022-09-22T13:44:51.745Z,97329.19
2022-09-22T13:49:49.606Z,97314.69
2022-09-22T13:54:43.654Z,97315.41
2022-09-22T13:59:43.543Z,97312.22
2022-09-22T14:04:36.924Z,97311.09
2022-09-22T14:09:31.765Z,97299.41
2022-09-22T14:14:28.030Z,97295.66
2022-09-22T14:19:29.161Z,97303.44
2022-09-22T14:24:22.709Z,97298.44
2022-09-22T14:29:23.142Z,97287.56
2022-09-22T14:34:25.563Z,97284.50
2022-09-22T14:39:28.796Z,97286.03
2022-09-22T14:44:36.411Z,97279.59
2022-09-22T14:49:44.781Z,97274.13
2022-09-22T14:54:39.020Z,97280.84
2022-09-22T14:59:55.476Z,97270.75
2022-09-22T15:04:53.907Z,97273.56
2022-09-22T15:09:54.661Z,97278.75
2022-09-22T15:14:48.737Z,97271.94
2022-09-22T15:19:42.011Z,97278.34
2022-09-22T15:24:39.382Z,97276.13
2022-09-22T15:29:32.708Z,97277.53
2022-09-22T15:34:26.398Z,97271.13
2022-09-22T15:39:23.823Z,97270.72
2022-09-22T15:44:19.183Z,97277.13
2022-09-22T15:49:20.924Z,97278.94
2022-09-22T15:54:16.717Z,97267.69
2022-09-22T15:59:19.820Z,97263.50
2022-09-22T16:04:13.508Z,97266.28
2022-09-22T16:09:07.623Z,97260.84
2022-09-22T16:14:04.036Z,97274.38
2022-09-22T16:18:59.555Z,97272.66
2022-09-22T16:23:54.735Z,97268.50
2022-09-22T16:28:48.260Z,97260.28
2022-09-22T16:33:41.581Z,97260.69
2022-09-22T16:38:38.257Z,97264.72
2022-09-22T16:43:32.414Z,97273.28
2022-09-22T16:48:25.936Z,97265.59
2022-09-22T16:53:19.171Z,97264.06
2022-09-22T16:58:13.801Z,97274.69
2022-09-22T17:03:07.082Z,97271.59
2022-09-22T17:08:05.932Z,97262.94
2022-09-22T17:13:00.174Z,97260.78
2022-09-22T17:17:54.798Z,97264.09
2022-09-22T17:22:48.109Z,97268.75
2022-09-22T17:27:46.833Z,97270.16
2022-09-22T17:32:46.282Z,97274.38
2022-09-22T17:37:40.917Z,97274.88
2022-09-22T17:42:37.704Z,97286.31
2022-09-22T17:48:00.041Z,97293.38
2022-09-22T17:53:12.178Z,97294.44
2022-09-22T17:58:05.449Z,97293.97
2022-09-22T18:02:58.886Z,97304.28
2022-09-22T18:07:57.919Z,97298.31
2022-09-22T18:12:51.543Z,97298.97
2022-09-22T18:17:47.979Z,97302.50
2022-09-22T18:22:48.251Z,97308.75
2022-09-22T18:27:44.176Z,97305.28
2022-09-22T18:32:37.477Z,97305.78
2022-09-22T18:37:30.887Z,97312.34
2022-09-22T18:42:27.526Z,97314.63
2022-09-22T18:47:24.201Z,97314.13
2022-09-22T18:52:18.235Z,97325.25
2022-09-22T18:57:13.315Z,97332.88
2022-09-22T19:02:11.308Z,97332.69
2022-09-22T19:07:24.360Z,97333.09
2022-09-22T19:12:18.021Z,97334.16
2022-09-22T19:17:13.187Z,97336.53
2022-09-22T19:22:09.518Z,97332.94
2022-09-22T19:27:03.318Z,97335.22
2022-09-22T19:31:57.139Z,97332.94
2022-09-22T19:36:50.610Z,97329.81
2022-09-22T19:41:48.165Z,97326.88
2022-09-22T19:46:42.662Z,97325.53
2022-09-22T19:51:36.002Z,97321.50
2022-09-22T19:56:29.261Z,97320.22
2022-09-22T20:01:37.523Z,97321.72
2022-09-22T20:06:31.347Z,97320.75
2022-09-22T20:11:26.742Z,97308.59
2022-09-22T20:16:20.258Z,97311.41
2022-09-22T20:21:16.523Z,97311.63
2022-09-22T20:26:10.826Z,97307.03
2022-09-22T20:31:04.144Z,97312.25
2022-09-22T20:35:58.906Z,97309.06
2022-09-22T20:40:53.632Z,97308.66
2022-09-22T20:45:46.902Z,97312.00
2022-09-22T20:50:40.154Z,97307.28
2022-09-22T20:55:33.395Z,97320.41
2022-09-22T21:00:27.992Z,97306.75
2022-09-22T21:05:21.786Z,97319.34
2022-09-22T21:10:32.589Z,97314.00
2022-09-22T21:15:27.315Z,97309.31
2022-09-22T21:20:21.587Z,97312.03
2022-09-22T21:25:15.211Z,97304.91
2022-09-22T21:30:09.739Z,97304.28
2022-09-22T21:35:04.730Z,97308.63
2022-09-22T21:39:57.955Z,97303.72
2022-09-22T21:44:51.243Z,97300.84
2022-09-22T21:49:44.508Z,97302.78
2022-09-22T21:54:39.089Z,97306.31
2022-09-22T21:59:32.314Z,97302.91
2022-09-22T22:04:25.583Z,97297.00
2022-09-22T22:09:21.401Z,97303.41
2022-09-22T22:14:18.399Z,97304.41
2022-09-22T22:19:15.246Z,97295.44
2022-09-22T22:24:31.806Z,97303.16
2022-09-22T22:29:28.146Z,97298.78
2022-09-22T22:34:25.533Z,97296.25
2022-09-22T22:39:18.775Z,97300.41
2022-09-22T22:44:12.982Z,97295.91
2022-09-22T22:49:08.278Z,97295.59
2022-09-22T22:54:01.568Z,97295.91
2022-09-22T22:58:55.871Z,97299.91
2022-09-22T23:03:52.699Z,97292.09
2022-09-22T23:08:47.820Z,97295.06
2022-09-22T23:13:47.947Z,97290.81
2022-09-22T23:18:43.636Z,97296.78
2022-09-22T23:23:39.007Z,97297.53
2022-09-22T23:28:35.858Z,97294.53
2022-09-22T23:33:29.612Z,97291.06
2022-09-22T23:38:23.290Z,97284.63
2022-09-22T23:43:17.017Z,97287.75
2022-09-22T23:48:11.648Z,97274.28
2022-09-22T23:53:05.269Z,97279.63
2022-09-22T23:57:58.537Z,97278.94
